createdAt,value
2019-05-26T00:01:31.601Z,61.90
2019-05-26T00:04:00.271Z,61.80
2019-05-26T00:06:28.974Z,61.80
2019-05-26T00:08:57.630Z,62.00
2019-05-26T00:11:26.307Z,62.10
2019-05-26T00:13:54.983Z,62.20
2019-05-26T00:16:23.639Z,62.20
2019-05-26T00:18:52.326Z,62.40
2019-05-26T00:21:20.983Z,62.60
2019-05-26T00:23:49.648Z,62.80
2019-05-26T00:26:18.307Z,62.90
2019-05-26T00:28:46.993Z,63.40
2019-05-26T00:31:15.648Z,63.60
2019-05-26T00:33:44.312Z,64.00
2019-05-26T00:36:12.999Z,64.20
2019-05-26T00:38:41.669Z,64.60
2019-05-26T00:41:10.415Z,64.90
2019-05-26T00:43:39.136Z,65.10
2019-05-26T00:46:07.908Z,65.50
2019-05-26T00:48:36.572Z,65.60
2019-05-26T00:51:05.393Z,66.00
2019-05-26T00:53:34.117Z,66.20
2019-05-26T00:56:02.839Z,66.00
2019-05-26T00:58:31.653Z,65.80
2019-05-26T01:01:00.878Z,65.70
2019-05-26T01:03:29.729Z,65.80
2019-05-26T01:05:58.534Z,66.20
2019-05-26T01:08:27.208Z,67.20
2019-05-26T01:10:55.878Z,66.80
2019-05-26T01:13:24.534Z,67.10
2019-05-26T01:15:53.287Z,67.50
2019-05-26T01:18:21.991Z,67.60
2019-05-26T01:20:50.647Z,68.00
2019-05-26T01:23:19.328Z,67.80
2019-05-26T01:25:47.986Z,67.70
2019-05-26T01:28:16.647Z,68.00
2019-05-26T01:30:45.695Z,68.10
2019-05-26T01:33:14.419Z,67.70
2019-05-26T01:35:43.427Z,67.90
2019-05-26T01:38:23.693Z,68.70
2019-05-26T01:40:45.079Z,68.40
2019-05-26T01:43:13.866Z,68.80
2019-05-26T01:45:42.605Z,68.80
2019-05-26T01:48:11.551Z,69.00
2019-05-26T01:50:40.300Z,68.90
2019-05-26T01:53:09.055Z,69.20
2019-05-26T01:55:37.734Z,69.60
2019-05-26T01:58:06.837Z,69.70
2019-05-26T02:00:35.577Z,70.20
2019-05-26T02:03:04.590Z,70.20
2019-05-26T02:05:33.408Z,70.40
2019-05-26T02:08:02.058Z,70.80
2019-05-26T02:10:30.805Z,71.10
2019-05-26T02:12:59.465Z,71.20
2019-05-26T02:15:29.586Z,71.60
2019-05-26T02:17:58.313Z,71.50
2019-05-26T02:20:27.414Z,71.50
2019-05-26T02:22:56.074Z,72.40
2019-05-26T02:25:25.278Z,71.80
2019-05-26T02:27:54.022Z,72.00
2019-05-26T02:30:23.621Z,71.90
2019-05-26T02:32:52.332Z,72.10
2019-05-26T02:35:21.357Z,72.20
2019-05-26T02:37:50.023Z,72.70
2019-05-26T02:40:20.596Z,72.70
2019-05-26T02:42:49.439Z,72.90
2019-05-26T02:45:20.491Z,73.40
2019-05-26T02:47:49.320Z,74.10
2019-05-26T02:50:18.717Z,74.20
2019-05-26T02:52:47.511Z,74.20
2019-05-26T02:55:16.739Z,74.20
2019-05-26T02:57:45.463Z,74.40
2019-05-26T03:00:15.877Z,74.50
2019-05-26T03:02:44.994Z,75.00
2019-05-26T03:05:15.664Z,75.20
2019-05-26T03:07:44.554Z,75.60
2019-05-26T03:10:16.358Z,75.80
2019-05-26T03:12:46.893Z,76.20
2019-05-26T03:15:16.776Z,76.40
2019-05-26T03:17:47.456Z,76.60
2019-05-26T03:20:16.367Z,76.60
2019-05-26T03:22:48.434Z,76.90
2019-05-26T03:25:17.204Z,77.10
2019-05-26T03:27:45.955Z,77.00
2019-05-26T03:30:14.739Z,76.90
2019-05-26T03:32:43.408Z,77.30
2019-05-26T03:35:12.385Z,77.50
2019-05-26T03:37:41.136Z,77.70
2019-05-26T03:40:10.833Z,77.70
2019-05-26T03:42:39.510Z,77.80
2019-05-26T03:45:08.597Z,77.90
2019-05-26T03:47:37.494Z,77.90
2019-05-26T03:50:09.227Z,77.80
2019-05-26T03:52:37.943Z,77.80
2019-05-26T03:55:09.381Z,78.30
2019-05-26T03:57:38.091Z,77.80
2019-05-26T04:00:09.619Z,77.80
2019-05-26T04:02:38.414Z,77.80
2019-05-26T04:05:08.040Z,78.00
2019-05-26T04:07:36.712Z,78.00
2019-05-26T04:10:07.142Z,77.90
2019-05-26T04:12:36.076Z,78.00
2019-05-26T04:15:09.185Z,78.20
2019-05-26T04:17:37.859Z,78.50
2019-05-26T04:20:07.351Z,78.60
2019-05-26T04:22:36.019Z,78.90
2019-05-26T04:25:06.589Z,78.70
2019-05-26T04:27:35.241Z,78.60
2019-05-26T04:30:06.959Z,78.60
2019-05-26T04:32:35.617Z,78.60
2019-05-26T04:35:07.090Z,78.60
2019-05-26T04:37:35.779Z,78.70
2019-05-26T04:40:25.984Z,78.80
2019-05-26T04:42:40.142Z,78.70
2019-05-26T04:45:09.082Z,78.60
2019-05-26T04:47:37.747Z,78.70
2019-05-26T04:50:06.636Z,78.50
2019-05-26T04:52:35.326Z,78.40
2019-05-26T04:55:09.276Z,78.10
2019-05-26T04:57:37.997Z,77.90
2019-05-26T05:00:07.902Z,77.40
2019-05-26T05:02:36.692Z,77.40
2019-05-26T05:05:07.378Z,77.50
2019-05-26T05:07:36.050Z,76.90
2019-05-26T05:10:06.426Z,76.90
2019-05-26T05:12:35.198Z,76.00
2019-05-26T05:15:09.094Z,76.30
2019-05-26T05:17:37.750Z,75.40
2019-05-26T05:20:07.653Z,75.00
2019-05-26T05:22:36.327Z,74.30
2019-05-26T05:25:14.710Z,73.90
2019-05-26T05:27:39.440Z,74.10
2019-05-26T05:30:09.139Z,74.00
2019-05-26T05:32:37.883Z,73.60
2019-05-26T05:35:08.783Z,73.40
2019-05-26T05:37:37.538Z,73.50
2019-05-26T05:40:09.753Z,73.50
2019-05-26T05:42:38.575Z,72.60
2019-05-26T05:45:08.338Z,73.20
2019-05-26T05:47:37.097Z,72.80
2019-05-26T05:50:08.850Z,73.00
2019-05-26T05:52:37.612Z,72.90
2019-05-26T05:55:06.820Z,72.60
2019-05-26T05:57:35.476Z,72.70
2019-05-26T06:00:09.360Z,72.50
2019-05-26T06:02:38.164Z,72.40
2019-05-26T06:05:08.243Z,72.50
2019-05-26T06:07:36.921Z,72.00
2019-05-26T06:10:07.924Z,72.00
2019-05-26T06:12:36.684Z,71.70
2019-05-26T06:15:10.214Z,71.10
2019-05-26T06:17:38.177Z,70.90
2019-05-26T06:20:08.482Z,70.80
2019-05-26T06:22:37.165Z,70.50
2019-05-26T06:25:06.666Z,70.30
2019-05-26T06:27:35.337Z,70.40
2019-05-26T06:30:07.811Z,70.60
2019-05-26T06:32:36.478Z,70.10
2019-05-26T06:35:06.277Z,70.00
2019-05-26T06:37:35.056Z,70.00
2019-05-26T06:40:07.508Z,69.70
2019-05-26T06:42:36.637Z,69.30
2019-05-26T06:45:07.097Z,68.70
2019-05-26T06:47:35.750Z,67.90
2019-05-26T06:50:08.753Z,67.90
2019-05-26T06:52:37.429Z,67.80
2019-05-26T06:55:06.467Z,67.70
2019-05-26T06:57:35.158Z,66.50
2019-05-26T07:00:08.662Z,66.10
2019-05-26T07:02:37.391Z,66.30
2019-05-26T07:05:07.422Z,66.00
2019-05-26T07:07:36.134Z,65.20
2019-05-26T07:10:08.204Z,64.80
2019-05-26T07:12:37.385Z,63.30
2019-05-26T07:15:09.427Z,62.60
2019-05-26T07:17:38.108Z,62.00
2019-05-26T07:20:07.537Z,62.00
2019-05-26T07:22:36.203Z,61.60
2019-05-26T07:25:09.036Z,60.40
2019-05-26T07:27:37.860Z,59.50
2019-05-26T07:30:07.996Z,59.10
2019-05-26T07:32:37.252Z,58.80
2019-05-26T07:35:06.921Z,58.80
2019-05-26T07:37:35.689Z,58.40
2019-05-26T07:40:06.081Z,58.10
2019-05-26T07:42:35.205Z,58.70
2019-05-26T07:45:07.441Z,58.40
2019-05-26T07:47:36.262Z,58.40
2019-05-26T07:50:08.530Z,58.70
2019-05-26T07:52:37.331Z,59.00
2019-05-26T07:55:06.625Z,59.60
2019-05-26T07:57:35.530Z,59.60
2019-05-26T08:00:08.343Z,59.20
2019-05-26T08:02:37.023Z,59.20
2019-05-26T08:05:07.139Z,59.00
2019-05-26T08:07:35.860Z,59.20
2019-05-26T08:10:06.930Z,59.00
2019-05-26T08:12:35.611Z,59.20
2019-05-26T08:15:06.692Z,59.20
2019-05-26T08:17:35.478Z,58.50
2019-05-26T08:20:06.891Z,58.60
2019-05-26T08:22:35.567Z,58.10
2019-05-26T08:25:08.099Z,58.10
2019-05-26T08:27:36.904Z,57.30
2019-05-26T08:30:07.218Z,57.20
2019-05-26T08:32:36.017Z,57.10
2019-05-26T08:35:06.908Z,57.10
2019-05-26T08:37:35.587Z,56.50
2019-05-26T08:40:18.405Z,56.70
2019-05-26T08:42:51.348Z,56.90
2019-05-26T08:45:23.142Z,57.10
2019-05-26T08:47:52.215Z,56.40
2019-05-26T08:50:22.123Z,56.20
2019-05-26T08:52:50.784Z,56.60
2019-05-26T08:55:19.689Z,56.60
2019-05-26T08:57:48.863Z,56.40
2019-05-26T09:00:18.090Z,56.80
2019-05-26T09:02:46.842Z,56.90
2019-05-26T09:05:16.120Z,57.10
2019-05-26T09:07:44.884Z,57.20
2019-05-26T09:10:13.806Z,57.40
2019-05-26T09:12:42.477Z,57.70
2019-05-26T09:15:11.262Z,57.50
2019-05-26T09:17:40.006Z,57.30
2019-05-26T09:20:11.552Z,57.20
2019-05-26T09:22:39.982Z,57.00
2019-05-26T09:25:09.003Z,56.80
2019-05-26T09:27:37.693Z,57.00
2019-05-26T09:30:08.220Z,56.90
2019-05-26T09:32:37.305Z,56.90
2019-05-26T09:35:07.415Z,56.40
2019-05-26T09:37:36.086Z,56.50
2019-05-26T09:40:09.386Z,56.80
2019-05-26T09:42:38.134Z,56.80
2019-05-26T09:45:08.255Z,56.50
2019-05-26T09:47:36.938Z,56.10
2019-05-26T09:50:07.594Z,55.40
2019-05-26T09:52:36.811Z,54.80
2019-05-26T09:55:07.217Z,54.80
2019-05-26T09:57:36.155Z,54.80
2019-05-26T10:00:09.541Z,54.70
2019-05-26T10:02:38.332Z,54.70
2019-05-26T10:05:07.648Z,54.90
2019-05-26T10:07:36.320Z,54.40
2019-05-26T10:10:09.008Z,53.60
2019-05-26T10:12:37.853Z,53.60
2019-05-26T10:15:07.367Z,52.50
2019-05-26T10:17:36.111Z,52.60
2019-05-26T10:20:09.756Z,53.20
2019-05-26T10:22:38.421Z,53.50
2019-05-26T10:25:07.836Z,53.20
2019-05-26T10:27:36.655Z,52.70
2019-05-26T10:30:10.528Z,51.90
2019-05-26T10:32:39.215Z,51.80
2019-05-26T10:35:08.117Z,51.80
2019-05-26T10:37:36.780Z,51.30
2019-05-26T10:40:06.989Z,51.10
2019-05-26T10:42:35.664Z,51.50
2019-05-26T10:45:06.906Z,51.60
2019-05-26T10:47:35.598Z,51.90
2019-05-26T10:50:12.377Z,51.40
2019-05-26T10:52:41.124Z,50.60
2019-05-26T10:55:10.195Z,50.60
2019-05-26T10:57:38.944Z,50.60
2019-05-26T11:00:09.258Z,51.50
2019-05-26T11:02:37.974Z,51.00
2019-05-26T11:05:07.401Z,51.40
2019-05-26T11:07:36.247Z,51.60
2019-05-26T11:10:06.875Z,51.60
2019-05-26T11:12:35.933Z,51.20
2019-05-26T11:15:09.538Z,51.00
2019-05-26T11:17:38.363Z,50.40
2019-05-26T11:20:09.149Z,50.70
2019-05-26T11:22:37.802Z,50.30
2019-05-26T11:25:07.026Z,49.80
2019-05-26T11:27:35.677Z,50.50
2019-05-26T11:30:10.119Z,50.20
2019-05-26T11:32:38.886Z,51.00
2019-05-26T11:35:08.600Z,50.20
2019-05-26T11:37:37.352Z,51.10
2019-05-26T11:40:07.212Z,51.50
2019-05-26T11:42:35.926Z,50.50
2019-05-26T11:45:09.220Z,50.30
2019-05-26T11:47:37.958Z,51.90
2019-05-26T11:50:08.525Z,51.10
2019-05-26T11:52:37.221Z,50.80
2019-05-26T11:55:07.265Z,50.70
2019-05-26T11:57:37.205Z,51.50
2019-05-26T12:00:09.755Z,50.70
2019-05-26T12:02:39.141Z,50.40
2019-05-26T12:05:08.149Z,50.60
2019-05-26T12:07:36.883Z,50.40
2019-05-26T12:10:06.810Z,50.60
2019-05-26T12:12:35.708Z,49.90
2019-05-26T12:15:09.143Z,50.40
2019-05-26T12:17:37.946Z,51.00
2019-05-26T12:20:07.254Z,52.20
2019-05-26T12:22:36.136Z,50.50
2019-05-26T12:25:08.635Z,50.00
2019-05-26T12:27:37.432Z,50.30
2019-05-26T12:30:10.042Z,50.00
2019-05-26T12:32:38.786Z,49.20
2019-05-26T12:35:08.398Z,47.50
2019-05-26T12:37:37.215Z,46.70
2019-05-26T12:40:07.778Z,47.60
2019-05-26T12:42:36.437Z,46.80
2019-05-26T12:45:09.615Z,46.90
2019-05-26T12:47:38.349Z,47.30
2019-05-26T12:50:08.572Z,47.10
2019-05-26T12:52:37.671Z,47.90
2019-05-26T12:55:09.488Z,46.30
2019-05-26T12:57:37.715Z,46.60
2019-05-26T13:00:10.801Z,47.80
2019-05-26T13:02:39.529Z,46.30
2019-05-26T13:05:08.634Z,46.50
2019-05-26T13:07:37.459Z,46.80
2019-05-26T13:10:08.279Z,47.20
2019-05-26T13:12:37.016Z,47.20
2019-05-26T13:15:08.599Z,45.40
2019-05-26T13:17:37.312Z,45.40
2019-05-26T13:20:08.144Z,45.10
2019-05-26T13:22:37.059Z,46.60
2019-05-26T13:25:07.899Z,45.80
2019-05-26T13:27:36.560Z,46.00
2019-05-26T13:30:13.711Z,45.40
2019-05-26T13:32:42.371Z,44.80
2019-05-26T13:35:11.673Z,44.70
2019-05-26T13:37:40.420Z,43.40
2019-05-26T13:40:09.511Z,43.90
2019-05-26T13:42:38.252Z,44.10
2019-05-26T13:45:21.903Z,44.40
2019-05-26T13:47:39.781Z,44.20
2019-05-26T13:50:10.323Z,43.80
2019-05-26T13:52:38.984Z,44.10
2019-05-26T13:55:08.597Z,44.10
2019-05-26T13:57:37.328Z,44.60
2019-05-26T14:00:12.113Z,44.80
2019-05-26T14:02:40.854Z,44.80
2019-05-26T14:05:09.964Z,44.80
2019-05-26T14:07:38.685Z,44.60
2019-05-26T14:10:08.151Z,44.10
2019-05-26T14:12:36.969Z,45.00
2019-05-26T14:15:08.001Z,44.80
2019-05-26T14:17:38.565Z,43.80
2019-05-26T14:20:08.311Z,45.20
2019-05-26T14:22:37.055Z,44.50
2019-05-26T14:25:06.966Z,44.80
2019-05-26T14:27:35.647Z,44.80
2019-05-26T14:30:08.357Z,45.00
2019-05-26T14:32:37.124Z,45.20
2019-05-26T14:35:06.853Z,44.80
2019-05-26T14:37:35.507Z,45.10
2019-05-26T14:40:08.601Z,45.40
2019-05-26T14:42:37.315Z,45.40
2019-05-26T14:45:09.080Z,45.60
2019-05-26T14:47:37.843Z,45.50
2019-05-26T14:50:08.782Z,45.60
2019-05-26T14:52:38.528Z,46.10
2019-05-26T14:55:07.456Z,47.00
2019-05-26T14:57:36.185Z,45.40
2019-05-26T15:00:09.300Z,46.10
2019-05-26T15:02:37.978Z,45.80
2019-05-26T15:05:07.329Z,46.50
2019-05-26T15:07:36.364Z,47.00
2019-05-26T15:10:09.095Z,46.50
2019-05-26T15:12:37.741Z,47.00
2019-05-26T15:15:07.086Z,47.60
2019-05-26T15:17:35.786Z,47.90
2019-05-26T15:20:08.337Z,48.00
2019-05-26T15:22:36.992Z,48.60
2019-05-26T15:25:06.745Z,49.00
2019-05-26T15:27:35.754Z,48.70
2019-05-26T15:30:09.055Z,49.30
2019-05-26T15:32:37.668Z,49.70
2019-05-26T15:35:06.993Z,49.70
2019-05-26T15:37:35.595Z,49.90
2019-05-26T15:40:08.507Z,50.20
2019-05-26T15:42:37.233Z,49.60
2019-05-26T15:45:10.206Z,49.80
2019-05-26T15:47:38.809Z,49.80
2019-05-26T15:50:09.146Z,49.60
2019-05-26T15:52:37.768Z,50.00
2019-05-26T15:55:07.314Z,49.90
2019-05-26T15:57:35.907Z,49.30
2019-05-26T16:00:09.363Z,48.90
2019-05-26T16:02:37.973Z,49.60
2019-05-26T16:05:07.010Z,49.80
2019-05-26T16:07:35.698Z,49.40
2019-05-26T16:10:08.102Z,49.80
2019-05-26T16:12:36.795Z,50.00
2019-05-26T16:15:07.327Z,50.20
2019-05-26T16:17:38.689Z,50.00
2019-05-26T16:20:06.595Z,50.20
2019-05-26T16:22:35.191Z,50.00
2019-05-26T16:25:05.037Z,50.40
2019-05-26T16:27:33.642Z,49.80
2019-05-26T16:30:02.327Z,50.40
2019-05-26T16:32:30.944Z,50.00
2019-05-26T16:34:59.535Z,49.20
2019-05-26T16:37:28.151Z,49.30
2019-05-26T16:39:56.848Z,49.80
2019-05-26T16:42:25.516Z,50.00
2019-05-26T16:44:54.124Z,50.00
2019-05-26T16:47:22.759Z,50.00
2019-05-26T16:49:51.368Z,50.30
2019-05-26T16:52:20.124Z,49.80
2019-05-26T16:54:48.747Z,49.60
2019-05-26T16:57:17.333Z,48.90
2019-05-26T16:59:46.005Z,48.90
2019-05-26T17:02:14.670Z,48.50
2019-05-26T17:04:43.259Z,48.70
2019-05-26T17:07:11.841Z,49.10
2019-05-26T17:09:40.450Z,49.60
2019-05-26T17:12:09.066Z,48.90
2019-05-26T17:14:37.668Z,48.50
2019-05-26T17:17:14.661Z,48.70
2019-05-26T17:19:35.987Z,49.30
2019-05-26T17:22:04.846Z,49.00
2019-05-26T17:24:33.458Z,49.30
2019-05-26T17:27:02.219Z,49.20
2019-05-26T17:29:30.831Z,49.50
2019-05-26T17:31:59.567Z,49.90
2019-05-26T17:34:28.159Z,50.10
2019-05-26T17:36:56.759Z,50.20
2019-05-26T17:39:25.375Z,50.30
2019-05-26T17:41:53.968Z,50.30
2019-05-26T17:44:22.644Z,50.30
2019-05-26T17:46:51.256Z,50.90
2019-05-26T17:49:19.855Z,51.20
2019-05-26T17:51:48.468Z,51.40
2019-05-26T17:54:17.061Z,51.60
2019-05-26T17:56:45.802Z,51.50
2019-05-26T17:59:14.426Z,51.80
2019-05-26T18:01:43.003Z,51.10
2019-05-26T18:04:11.614Z,51.00
2019-05-26T18:06:40.229Z,50.30
2019-05-26T18:09:08.896Z,47.80
2019-05-26T18:11:37.484Z,45.00
2019-05-26T18:14:06.169Z,44.10
2019-05-26T18:16:34.907Z,44.50
2019-05-26T18:19:03.578Z,44.80
2019-05-26T18:21:32.169Z,44.70
2019-05-26T18:24:00.764Z,45.00
2019-05-26T18:26:31.056Z,45.10
2019-05-26T18:28:59.650Z,45.10
2019-05-26T18:31:29.315Z,44.20
2019-05-26T18:33:58.654Z,44.10
2019-05-26T18:36:27.257Z,43.70
2019-05-26T18:38:55.842Z,43.90
2019-05-26T18:41:24.441Z,44.30
2019-05-26T18:43:53.146Z,44.50
2019-05-26T18:46:21.747Z,44.80
2019-05-26T18:48:50.341Z,45.10
2019-05-26T18:51:19.093Z,45.20
2019-05-26T18:53:47.716Z,45.50
2019-05-26T18:56:16.315Z,45.70
2019-05-26T18:58:44.901Z,46.30
2019-05-26T19:01:13.611Z,46.20
2019-05-26T19:03:42.271Z,46.40
2019-05-26T19:06:11.066Z,46.30
2019-05-26T19:08:39.659Z,46.50
2019-05-26T19:48:54.468Z,49.00
2019-05-26T19:51:25.107Z,50.40
2019-05-26T19:53:55.667Z,51.20
2019-05-26T19:56:26.153Z,51.70
2019-05-26T19:59:52.986Z,51.80
2019-05-26T20:02:23.494Z,52.90
2019-05-26T20:04:53.997Z,53.60
2019-05-26T20:07:24.525Z,54.20
2019-05-26T20:09:55.010Z,54.80
2019-05-26T20:12:25.530Z,56.00
2019-05-26T20:14:56.089Z,56.50
2019-05-26T20:17:26.601Z,56.80
2019-05-26T20:19:57.098Z,57.30
2019-05-26T20:22:27.610Z,57.50
2019-05-26T20:24:58.126Z,57.60
2019-05-26T20:27:28.641Z,57.50
2019-05-26T20:29:59.135Z,57.90
2019-05-26T20:32:29.641Z,58.00
2019-05-26T20:35:00.129Z,58.10
2019-05-26T20:37:30.640Z,58.30
2019-05-26T20:40:01.124Z,58.30
2019-05-26T20:42:31.640Z,58.40
2019-05-26T20:45:02.140Z,58.60
2019-05-26T20:47:33.709Z,58.70
2019-05-26T20:50:08.247Z,59.00
2019-05-26T20:52:38.788Z,59.30
2019-05-26T20:55:10.624Z,59.20
2019-05-26T20:57:41.133Z,59.40
2019-05-26T21:00:13.514Z,59.30
2019-05-26T21:02:44.669Z,59.50
2019-05-26T21:05:15.495Z,59.60
2019-05-26T21:07:46.012Z,59.60
2019-05-26T21:10:16.858Z,59.60
2019-05-26T21:12:47.361Z,59.80
2019-05-26T21:15:18.001Z,59.90
2019-05-26T21:17:48.493Z,60.00
2019-05-26T21:20:19.214Z,60.00
2019-05-26T21:22:49.725Z,60.00
2019-05-26T21:25:20.230Z,60.50
2019-05-26T21:27:50.758Z,60.70
2019-05-26T21:30:21.262Z,61.10
2019-05-26T21:32:51.766Z,61.00
2019-05-26T21:35:22.270Z,61.20
2019-05-26T21:37:52.769Z,61.10
2019-05-26T21:40:23.274Z,61.20
2019-05-26T21:42:53.769Z,61.30
2019-05-26T21:45:24.255Z,61.40
2019-05-26T21:47:54.774Z,61.70
2019-05-26T21:50:25.349Z,61.90
2019-05-26T21:52:55.859Z,61.90
2019-05-26T21:55:26.606Z,62.30
2019-05-26T21:57:57.120Z,62.40
2019-05-26T22:00:30.185Z,62.30
2019-05-26T22:03:00.949Z,62.60
2019-05-26T22:05:31.456Z,62.40
2019-05-26T22:08:01.962Z,62.40
2019-05-26T22:10:32.456Z,62.50
2019-05-26T22:13:02.946Z,62.70
2019-05-26T22:15:33.538Z,62.80
2019-05-26T22:18:04.265Z,63.20
2019-05-26T22:20:34.765Z,63.20
2019-05-26T22:23:05.256Z,63.50
2019-05-26T22:25:35.817Z,63.50
2019-05-26T22:28:07.401Z,63.80
2019-05-26T22:30:37.893Z,63.90
2019-05-26T22:33:08.398Z,63.90
2019-05-26T22:35:38.884Z,64.00
2019-05-26T22:38:09.393Z,64.00
2019-05-26T22:40:39.901Z,64.20
2019-05-26T22:43:10.505Z,64.20
2019-05-26T22:45:41.088Z,64.20
2019-05-26T22:48:11.566Z,64.50
2019-05-26T22:50:42.081Z,64.60
2019-05-26T22:53:12.572Z,65.40
2019-05-26T22:55:44.063Z,65.20
2019-05-26T22:58:14.565Z,65.20
2019-05-26T23:00:45.047Z,65.80
2019-05-26T23:03:15.552Z,65.90
2019-05-26T23:05:46.061Z,66.70
2019-05-26T23:08:16.540Z,67.20
2019-05-26T23:10:47.084Z,67.50
2019-05-26T23:13:17.581Z,67.70
2019-05-26T23:15:48.076Z,67.80
2019-05-26T23:18:18.643Z,67.80
2019-05-26T23:20:49.141Z,67.90
2019-05-26T23:23:19.637Z,67.90
2019-05-26T23:25:50.121Z,67.90
2019-05-26T23:28:20.617Z,69.40
2019-05-26T23:30:51.086Z,70.40
2019-05-26T23:33:21.594Z,71.20
2019-05-26T23:35:52.074Z,70.90
2019-05-26T23:38:22.573Z,70.50
2019-05-26T23:40:53.081Z,70.80
2019-05-26T23:43:23.562Z,70.40
2019-05-26T23:45:54.119Z,70.70
2019-05-26T23:48:24.637Z,70.70
2019-05-26T23:50:55.134Z,72.60
2019-05-26T23:53:25.615Z,73.60
2019-05-26T23:55:56.110Z,74.40
2019-05-26T23:58:26.657Z,74.90
